Saint Michaelisdonn, Germany

8:47 PM CEST on July 27, 2016 (GMT +0200)
Bodenlager Dyhrrsenmoor | | Change Station

Elev 0 ft 53.97 °N, 9.27 °E | Updated 0 second ago

Mostly Cloudy
Mostly Cloudy
65.1 °F
Feels Like 65.1 °F
N
0.0
Wind Variable Wind from SSW
Gusts 0.0 mph

Today
High -- | Low -- °F
--% Chance of Precip.
Yesterday
High -- | Low -- °F
Precip. -- in
Pressure 29.95 in
Visibility 6.2 miles
Clouds Few 1000 ft
Mostly Cloudy 4300 ft
Dew Point 63 °F
Humidity 93%
Rainfall 0.00 in
Snow Depth Not available.
5:29 AM 9:29 PM
Last Quarter, 41% visible
METAR ETMN 271820Z 25006KT 9999 FEW010 BKN043 19/16 Q1014 BLU BLU TEMPO WHT
Pressure 29.95 in
Visibility 6.2 miles
Clouds Few 1000 ft
Mostly Cloudy 4300 ft
Dew Point 63 °F
Humidity 93%
Rainfall 0.00 in
Snow Depth Not available.
5:29 AM 9:29 PM
Last Quarter, 41% visible
METAR ETMN 271820Z 25006KT 9999 FEW010 BKN043 19/16 Q1014 BLU BLU TEMPO WHT

10-Day Weather Forecast

×

Almanac

Astronomy

Jul. 27, 2016 Rise Set
Actual Time
Civil Twilight
Nautical Twilight
Astronomical Twilight
Moon
Length of Visible Light
Length of Day
Tomorrow will be .
, % of the Moon is Illuminated

Today's Extremes

Country Highs Country Lows

Community

WunderPhotos

Upload Photos

1,927,897 photos uploaded!

WunderBlog® & News

Nearby

Air Quality

  Air Quality AQ Index Pollutant
Not available.

Snow Depth

Station Depth Elevation

Earthquake Activity

City Distance Mag. Time & Date
Minimum magnitude displayed is 2.5.

Coastal Water Temperatures

Place Temperature

Stations

Nearby Weather Stations

Station Location Temp. Windchill Dew Point Humidity Wind Precip. Elev Updated Type